createdAt,value
2018-08-30T00:02:26.430Z,15.98
2018-08-30T00:04:55.090Z,16.26
2018-08-30T00:07:23.996Z,16.24
2018-08-30T00:09:52.602Z,16.23
2018-08-30T00:12:21.623Z,16.23
2018-08-30T00:14:50.230Z,16.23
2018-08-30T00:17:19.109Z,16.22
2018-08-30T00:19:47.702Z,16.25
2018-08-30T00:22:16.390Z,16.23
2018-08-30T00:24:44.981Z,16.23
2018-08-30T00:27:13.690Z,16.25
2018-08-30T00:29:42.600Z,16.26
2018-08-30T00:32:11.243Z,16.26
2018-08-30T00:34:40.470Z,16.27
2018-08-30T00:37:09.147Z,16.26
2018-08-30T00:39:37.973Z,16.25
2018-08-30T00:42:06.686Z,16.26
2018-08-30T00:44:35.458Z,16.24
2018-08-30T00:47:04.203Z,16.18
2018-08-30T00:49:32.969Z,16.27
2018-08-30T00:52:01.769Z,16.27
2018-08-30T00:54:30.518Z,16.27
2018-08-30T00:57:00.182Z,15.99
2018-08-30T00:59:28.793Z,16.29
2018-08-30T01:01:57.748Z,16.32
2018-08-30T01:04:26.382Z,16.32
2018-08-30T01:06:55.572Z,16.29
2018-08-30T01:09:24.108Z,16.29
2018-08-30T01:11:52.642Z,16.31
2018-08-30T01:14:22.088Z,15.96
2018-08-30T01:16:50.622Z,16.31
2018-08-30T01:19:19.766Z,15.73
2018-08-30T01:21:48.528Z,16.31
2018-08-30T01:24:17.445Z,16.32
2018-08-30T01:26:46.130Z,16.29
2018-08-30T01:29:15.068Z,16.29
2018-08-30T01:31:43.892Z,16.28
2018-08-30T01:34:14.170Z,16.27
2018-08-30T01:36:44.012Z,16.29
2018-08-30T01:39:13.162Z,16.29
2018-08-30T01:41:42.829Z,15.97
2018-08-30T01:44:12.917Z,16.30
2018-08-30T01:46:41.691Z,16.29
2018-08-30T01:49:10.754Z,16.28
2018-08-30T01:51:39.443Z,16.27
2018-08-30T01:54:09.016Z,16.25
2018-08-30T01:56:37.642Z,16.22
2018-08-30T01:59:06.265Z,16.22
2018-08-30T02:01:34.993Z,16.11
2018-08-30T02:04:04.015Z,16.16
2018-08-30T02:06:32.774Z,16.15
2018-08-30T02:09:01.422Z,16.12
2018-08-30T02:11:30.451Z,16.12
2018-08-30T02:13:59.074Z,16.08
2018-08-30T02:16:27.827Z,16.07
2018-08-30T02:18:56.514Z,16.07
2018-08-30T02:21:25.187Z,16.03
2018-08-30T02:23:53.818Z,16.02
2018-08-30T02:26:22.475Z,15.99
2018-08-30T02:28:52.071Z,15.80
2018-08-30T02:31:21.433Z,15.91
2018-08-30T02:33:50.974Z,15.90
2018-08-30T02:36:19.626Z,15.87
2018-08-30T02:38:48.447Z,15.88
2018-08-30T02:41:17.236Z,15.86
2018-08-30T02:43:46.155Z,15.86
2018-08-30T02:46:14.762Z,15.82
2018-08-30T02:48:43.423Z,15.79
2018-08-30T02:51:12.606Z,15.76
2018-08-30T02:53:41.450Z,15.74
2018-08-30T02:56:10.178Z,15.66
2018-08-30T02:58:38.765Z,15.71
2018-08-30T03:01:07.826Z,15.69
2018-08-30T03:03:36.425Z,15.66
2018-08-30T03:06:05.624Z,15.65
2018-08-30T03:08:34.349Z,15.63
2018-08-30T03:11:03.407Z,15.34
2018-08-30T03:13:32.088Z,15.50
2018-08-30T03:16:01.177Z,15.56
2018-08-30T03:18:29.718Z,15.56
2018-08-30T03:20:59.409Z,15.54
2018-08-30T03:23:28.041Z,15.54
2018-08-30T03:25:56.706Z,15.52
2018-08-30T03:28:25.370Z,15.53
2018-08-30T03:30:54.069Z,15.51
2018-08-30T03:33:23.027Z,15.50
2018-08-30T03:35:51.792Z,15.43
2018-08-30T03:38:20.599Z,15.46
2018-08-30T03:40:49.204Z,15.44
2018-08-30T03:43:18.029Z,15.40
2018-08-30T03:45:46.658Z,15.39
2018-08-30T03:48:16.065Z,15.37
2018-08-30T03:50:44.694Z,15.36
2018-08-30T03:53:13.350Z,15.34
2018-08-30T03:55:42.242Z,15.32
2018-08-30T03:58:10.818Z,15.32
2018-08-30T04:00:39.668Z,15.32
2018-08-30T04:03:08.201Z,15.30
2018-08-30T04:05:36.809Z,15.28
2018-08-30T04:08:05.718Z,15.29
2018-08-30T04:10:34.366Z,15.29
2018-08-30T04:13:03.208Z,15.28
2018-08-30T04:15:31.886Z,15.27
2018-08-30T04:18:00.652Z,15.27
2018-08-30T04:20:29.206Z,15.27
2018-08-30T04:22:58.305Z,15.27
2018-08-30T04:25:26.930Z,15.27
2018-08-30T04:27:55.792Z,15.27
2018-08-30T04:30:24.506Z,15.27
2018-08-30T04:32:53.138Z,15.28
2018-08-30T04:35:21.673Z,15.29
2018-08-30T04:37:50.310Z,15.30
2018-08-30T04:40:19.080Z,14.92
2018-08-30T04:42:48.021Z,15.31
2018-08-30T04:45:17.543Z,15.32
2018-08-30T04:47:46.155Z,15.32
2018-08-30T04:50:15.351Z,14.77
2018-08-30T04:52:44.005Z,15.32
2018-08-30T04:55:12.878Z,15.31
2018-08-30T04:57:41.606Z,15.31
2018-08-30T05:00:10.430Z,15.32
2018-08-30T05:02:38.994Z,15.31
2018-08-30T05:05:07.595Z,15.33
2018-08-30T05:07:36.324Z,15.35
2018-08-30T05:10:05.340Z,15.36
2018-08-30T05:12:34.266Z,15.37
2018-08-30T05:15:03.026Z,15.38
2018-08-30T05:17:31.992Z,15.39
2018-08-30T05:20:00.833Z,15.39
2018-08-30T05:22:29.715Z,15.40
2018-08-30T05:24:59.323Z,15.41
2018-08-30T05:27:28.011Z,15.41
2018-08-30T05:29:58.112Z,15.41
2018-08-30T05:32:27.617Z,15.44
2018-08-30T05:34:56.266Z,15.45
2018-08-30T05:37:30.702Z,15.47
2018-08-30T05:40:01.288Z,15.46
2018-08-30T05:42:30.834Z,15.39
2018-08-30T05:45:00.395Z,15.53
2018-08-30T05:47:29.086Z,15.54
2018-08-30T05:50:01.675Z,15.56
2018-08-30T05:52:30.598Z,15.60
2018-08-30T05:55:03.270Z,15.62
2018-08-30T05:57:32.014Z,15.65
2018-08-30T06:00:01.348Z,15.69
2018-08-30T06:02:30.414Z,15.73
2018-08-30T06:04:59.954Z,15.76
2018-08-30T06:07:32.910Z,15.79
2018-08-30T06:10:03.470Z,15.53
2018-08-30T06:12:36.527Z,15.82
2018-08-30T06:15:12.006Z,15.97
2018-08-30T06:17:50.716Z,16.02
2018-08-30T06:20:22.123Z,16.06
2018-08-30T06:22:51.510Z,16.09
2018-08-30T06:25:21.061Z,15.38
2018-08-30T06:27:53.816Z,16.09
2018-08-30T06:30:23.499Z,16.08
2018-08-30T06:32:52.182Z,16.12
2018-08-30T06:35:21.032Z,16.15
2018-08-30T06:37:49.690Z,16.17
2018-08-30T06:40:19.120Z,16.18
2018-08-30T06:42:48.014Z,16.16
2018-08-30T06:45:16.861Z,16.22
2018-08-30T06:47:45.686Z,16.23
2018-08-30T06:50:15.250Z,16.24
2018-08-30T06:52:44.939Z,16.24
2018-08-30T06:55:15.021Z,16.25
2018-08-30T06:57:43.704Z,16.25
2018-08-30T07:00:13.239Z,16.26
2018-08-30T07:02:41.894Z,16.25
2018-08-30T07:05:10.888Z,16.26
2018-08-30T07:07:41.474Z,16.27
2018-08-30T07:10:10.248Z,16.27
2018-08-30T07:12:38.830Z,16.30
2018-08-30T07:15:07.852Z,16.11
2018-08-30T07:17:36.500Z,16.38
2018-08-30T07:20:05.426Z,16.43
2018-08-30T07:22:35.063Z,16.48
2018-08-30T07:25:03.751Z,16.52
2018-08-30T07:27:32.358Z,16.54
2018-08-30T07:30:01.154Z,16.55
2018-08-30T07:32:29.655Z,16.59
2018-08-30T07:34:58.439Z,16.63
2018-08-30T07:37:27.378Z,16.69
2018-08-30T07:39:56.167Z,16.76
2018-08-30T07:42:24.838Z,16.79
2018-08-30T07:44:53.580Z,16.75
2018-08-30T07:47:22.834Z,16.79
2018-08-30T07:49:51.430Z,16.79
2018-08-30T07:52:20.711Z,16.80
2018-08-30T07:54:50.123Z,16.83
2018-08-30T07:57:19.165Z,16.85
2018-08-30T07:59:47.767Z,16.89
2018-08-30T08:02:16.466Z,16.92
2018-08-30T08:04:45.373Z,16.96
2018-08-30T08:07:15.199Z,16.99
2018-08-30T08:09:43.975Z,17.04
2018-08-30T08:12:12.813Z,17.08
2018-08-30T08:14:41.760Z,17.08
2018-08-30T08:17:10.246Z,17.12
2018-08-30T08:19:39.520Z,17.15
2018-08-30T08:22:09.038Z,17.18
2018-08-30T08:24:38.042Z,17.23
2018-08-30T08:27:06.628Z,17.25
2018-08-30T08:29:35.549Z,17.35
2018-08-30T08:32:04.190Z,17.45
2018-08-30T08:34:32.839Z,17.46
2018-08-30T08:37:01.402Z,17.50
2018-08-30T08:39:30.067Z,17.55
2018-08-30T08:41:58.889Z,17.62
2018-08-30T08:44:27.374Z,17.67
2018-08-30T08:46:56.329Z,17.08
2018-08-30T08:49:24.988Z,17.66
2018-08-30T08:51:53.675Z,17.71
2018-08-30T08:54:22.310Z,17.78
2018-08-30T08:56:50.976Z,17.82
2018-08-30T08:59:20.322Z,17.91
2018-08-30T09:01:49.043Z,18.00
2018-08-30T09:04:17.926Z,18.04
2018-08-30T09:06:47.322Z,18.02
2018-08-30T09:09:17.490Z,18.03
2018-08-30T09:11:46.295Z,18.05
2018-08-30T09:14:15.266Z,18.08
2018-08-30T09:16:43.818Z,18.05
2018-08-30T09:19:12.811Z,18.05
2018-08-30T09:21:41.582Z,18.08
2018-08-30T09:24:10.158Z,18.06
2018-08-30T09:26:38.784Z,18.12
2018-08-30T09:29:07.377Z,18.12
2018-08-30T09:31:36.130Z,18.15
2018-08-30T09:34:05.317Z,18.19
2018-08-30T09:36:34.103Z,18.17
2018-08-30T09:39:02.789Z,18.19
2018-08-30T09:41:31.678Z,18.22
2018-08-30T09:44:00.398Z,18.22
2018-08-30T09:46:30.201Z,18.28
2018-08-30T09:48:58.786Z,18.35
2018-08-30T09:51:27.643Z,18.41
2018-08-30T09:53:56.436Z,18.47
2018-08-30T09:56:25.238Z,18.53
2018-08-30T09:58:54.662Z,18.56
2018-08-30T10:01:28.636Z,18.57
2018-08-30T10:03:57.218Z,18.63
2018-08-30T10:06:26.531Z,18.70
2018-08-30T10:08:55.149Z,18.76
2018-08-30T10:11:24.150Z,18.85
2018-08-30T10:13:52.732Z,18.94
2018-08-30T10:16:21.295Z,18.99
2018-08-30T10:18:49.873Z,19.00
2018-08-30T10:21:18.568Z,19.05
2018-08-30T10:23:47.686Z,19.07
2018-08-30T10:26:16.196Z,19.06
2018-08-30T10:28:45.789Z,19.13
2018-08-30T10:31:14.470Z,19.14
2018-08-30T10:33:43.752Z,19.24
2018-08-30T10:36:12.374Z,19.34
2018-08-30T10:38:41.379Z,19.42
2018-08-30T10:41:10.030Z,19.41
2018-08-30T10:43:39.542Z,19.45
2018-08-30T10:46:08.270Z,19.46
2018-08-30T10:48:36.919Z,19.46
2018-08-30T10:51:05.822Z,19.44
2018-08-30T10:53:34.508Z,19.48
2018-08-30T10:56:03.585Z,19.48
2018-08-30T10:58:32.392Z,19.50
2018-08-30T11:01:01.410Z,19.13
2018-08-30T11:03:30.063Z,19.50
2018-08-30T11:05:58.924Z,19.54
2018-08-30T11:08:27.502Z,19.57
2018-08-30T11:10:56.253Z,19.61
2018-08-30T11:13:25.090Z,19.27
2018-08-30T11:15:53.700Z,19.63
2018-08-30T11:18:24.106Z,19.70
2018-08-30T11:20:52.699Z,19.72
2018-08-30T11:23:21.908Z,19.72
2018-08-30T11:25:50.547Z,19.76
2018-08-30T11:28:19.796Z,19.80
2018-08-30T11:30:48.490Z,19.77
2018-08-30T11:33:18.170Z,19.78
2018-08-30T11:35:46.894Z,19.75
2018-08-30T11:38:15.946Z,19.66
2018-08-30T11:40:44.689Z,19.60
2018-08-30T11:43:13.383Z,19.65
2018-08-30T11:45:42.059Z,19.67
2018-08-30T11:48:10.810Z,19.67
2018-08-30T11:50:40.178Z,19.65
2018-08-30T11:53:08.793Z,19.74
2018-08-30T11:55:37.435Z,19.79
2018-08-30T11:58:06.066Z,19.82
2018-08-30T12:00:34.755Z,19.74
2018-08-30T12:03:03.533Z,19.77
2018-08-30T12:05:33.140Z,19.79
2018-08-30T12:08:01.865Z,19.82
2018-08-30T12:10:31.072Z,19.87
2018-08-30T12:12:59.729Z,19.96
2018-08-30T12:15:29.023Z,19.97
2018-08-30T12:17:57.693Z,20.01
2018-08-30T12:20:26.368Z,20.00
2018-08-30T12:22:55.166Z,19.80
2018-08-30T12:25:23.749Z,20.12
2018-08-30T12:27:53.120Z,20.22
2018-08-30T12:30:21.960Z,20.27
2018-08-30T12:32:50.947Z,20.25
2018-08-30T12:35:19.878Z,20.16
2018-08-30T12:37:48.669Z,20.12
2018-08-30T12:40:18.158Z,20.04
2018-08-30T12:42:46.796Z,20.10
2018-08-30T12:45:15.722Z,20.04
2018-08-30T12:47:44.315Z,20.11
2018-08-30T12:50:14.874Z,20.21
2018-08-30T12:52:43.281Z,20.29
2018-08-30T12:55:12.718Z,20.29
2018-08-30T12:57:41.374Z,20.27
2018-08-30T13:00:12.704Z,20.21
2018-08-30T13:02:41.323Z,20.16
2018-08-30T13:05:12.133Z,20.12
2018-08-30T13:07:40.739Z,20.15
2018-08-30T13:10:09.591Z,20.21
2018-08-30T13:12:38.639Z,20.28
2018-08-30T13:15:07.781Z,20.24
2018-08-30T13:17:36.155Z,20.25
2018-08-30T13:20:05.313Z,20.27
2018-08-30T13:22:33.805Z,20.20
2018-08-30T13:25:03.097Z,20.27
2018-08-30T13:27:31.696Z,20.34
2018-08-30T13:30:00.374Z,20.28
2018-08-30T13:32:29.066Z,20.24
2018-08-30T13:34:58.699Z,20.24
2018-08-30T13:37:27.146Z,20.29
2018-08-30T13:39:56.577Z,20.22
2018-08-30T13:42:25.300Z,20.16
2018-08-30T13:44:53.999Z,20.12
2018-08-30T13:47:23.620Z,20.06
2018-08-30T13:49:51.905Z,20.01
2018-08-30T13:52:21.152Z,19.94
2018-08-30T13:54:49.773Z,19.83
2018-08-30T13:57:18.565Z,19.89
2018-08-30T13:59:47.218Z,19.92
2018-08-30T14:02:15.892Z,19.90
2018-08-30T14:04:44.525Z,19.88
2018-08-30T14:07:13.408Z,19.86
2018-08-30T14:09:42.078Z,19.81
2018-08-30T14:12:11.049Z,19.65
2018-08-30T14:14:40.463Z,19.22
2018-08-30T14:17:08.701Z,19.59
2018-08-30T14:19:37.758Z,19.61
2018-08-30T14:22:06.546Z,19.66
2018-08-30T14:24:35.365Z,19.64
2018-08-30T14:27:04.019Z,19.62
2018-08-30T14:29:32.848Z,19.57
2018-08-30T14:32:01.775Z,19.44
2018-08-30T14:34:30.493Z,19.37
2018-08-30T14:36:59.942Z,19.37
2018-08-30T14:39:28.669Z,19.29
2018-08-30T14:41:58.377Z,19.36
2018-08-30T14:44:26.915Z,19.44
2018-08-30T14:46:55.785Z,19.49
2018-08-30T14:49:27.238Z,19.52
2018-08-30T14:51:56.306Z,19.51
2018-08-30T14:54:25.024Z,19.49
2018-08-30T14:56:54.091Z,19.48
2018-08-30T14:59:22.886Z,19.43
2018-08-30T15:01:52.601Z,19.44
2018-08-30T15:04:21.930Z,19.43
2018-08-30T15:06:50.939Z,19.41
2018-08-30T15:09:19.582Z,19.29
2018-08-30T15:11:48.698Z,19.32
2018-08-30T15:14:18.720Z,19.32
2018-08-30T15:16:48.197Z,19.38
2018-08-30T15:19:16.682Z,19.31
2018-08-30T15:21:45.492Z,19.28
2018-08-30T15:24:14.259Z,19.27
2018-08-30T15:26:46.426Z,19.20
2018-08-30T15:29:15.186Z,19.11
2018-08-30T15:31:44.034Z,19.14
2018-08-30T15:34:13.362Z,19.17
2018-08-30T15:36:42.301Z,19.17
2018-08-30T15:39:11.512Z,19.15
2018-08-30T15:41:40.520Z,19.09
2018-08-30T15:44:09.062Z,19.07
2018-08-30T15:46:37.772Z,19.12
2018-08-30T15:49:06.970Z,19.11
2018-08-30T15:51:35.548Z,19.07
2018-08-30T15:54:04.682Z,19.05
2018-08-30T15:56:33.270Z,19.08
2018-08-30T15:59:02.382Z,18.97
2018-08-30T16:01:31.062Z,18.90
2018-08-30T16:03:59.755Z,18.86
2018-08-30T16:06:28.586Z,18.86
2018-08-30T16:08:57.155Z,18.80
2018-08-30T16:11:26.267Z,18.75
2018-08-30T16:13:54.545Z,18.77
2018-08-30T16:16:23.543Z,18.78
2018-08-30T16:18:52.214Z,18.83
2018-08-30T16:21:20.817Z,18.89
2018-08-30T16:23:50.523Z,18.82
2018-08-30T16:26:19.224Z,18.75
2018-08-30T16:28:47.879Z,18.75
2018-08-30T16:31:16.807Z,18.71
2018-08-30T16:33:46.063Z,18.71
2018-08-30T16:36:14.803Z,18.80
2018-08-30T16:38:44.658Z,18.82
2018-08-30T16:41:13.417Z,18.84
2018-08-30T16:43:42.239Z,18.84
2018-08-30T16:46:11.441Z,18.89
2018-08-30T16:48:40.359Z,18.91
2018-08-30T16:51:09.144Z,18.96
2018-08-30T16:53:37.867Z,18.96
2018-08-30T16:56:06.626Z,19.00
2018-08-30T16:58:35.289Z,18.95
2018-08-30T17:01:03.970Z,18.94
2018-08-30T17:03:32.578Z,18.95
2018-08-30T17:06:01.794Z,18.96
2018-08-30T17:08:30.416Z,18.93
2018-08-30T17:10:59.426Z,18.87
2018-08-30T17:13:28.162Z,18.85
2018-08-30T17:15:57.195Z,18.86
2018-08-30T17:18:26.500Z,18.85
2018-08-30T17:20:56.628Z,18.77
2018-08-30T17:23:25.836Z,18.70
2018-08-30T17:25:54.567Z,18.66
2018-08-30T17:28:23.266Z,18.67
2018-08-30T17:30:51.946Z,18.67
2018-08-30T17:33:20.653Z,18.68
2018-08-30T17:35:49.495Z,18.71
2018-08-30T17:38:18.645Z,18.42
2018-08-30T17:40:47.303Z,18.68
2018-08-30T17:43:16.016Z,18.70
2018-08-30T17:45:44.655Z,18.70
2018-08-30T17:48:13.245Z,18.64
2018-08-30T17:50:41.743Z,18.63
2018-08-30T17:53:10.918Z,18.60
2018-08-30T17:55:39.669Z,18.52
2018-08-30T17:58:08.591Z,18.45
2018-08-30T18:00:37.414Z,18.31
2018-08-30T18:03:06.219Z,18.30
2018-08-30T18:05:34.926Z,18.30
2018-08-30T18:08:04.780Z,18.25
2018-08-30T18:10:33.679Z,18.20
2018-08-30T18:13:02.390Z,18.17
2018-08-30T18:15:31.484Z,18.16
2018-08-30T18:18:00.235Z,18.13
2018-08-30T18:20:33.877Z,18.25
2018-08-30T18:23:02.422Z,18.24
2018-08-30T18:25:31.527Z,18.16
2018-08-30T18:28:00.110Z,18.11
2018-08-30T18:30:28.717Z,18.07
2018-08-30T18:32:57.326Z,17.98
2018-08-30T18:35:26.927Z,17.98
2018-08-30T18:37:56.410Z,17.95
2018-08-30T18:40:25.076Z,17.90
2018-08-30T18:42:54.089Z,17.84
2018-08-30T18:45:22.829Z,17.79
2018-08-30T18:47:51.762Z,17.74
2018-08-30T18:50:20.585Z,17.71
2018-08-30T18:52:49.338Z,17.67
2018-08-30T18:55:18.094Z,17.63
2018-08-30T18:57:46.859Z,17.61
2018-08-30T19:00:16.437Z,17.58
2018-08-30T19:02:45.342Z,17.51
2018-08-30T19:05:14.817Z,16.83
2018-08-30T19:07:43.506Z,17.50
2018-08-30T19:10:12.700Z,17.46
2018-08-30T19:12:41.384Z,17.42
2018-08-30T19:15:15.603Z,17.40
2018-08-30T19:17:50.167Z,17.30
2018-08-30T19:20:19.061Z,17.27
2018-08-30T19:22:47.994Z,17.28
2018-08-30T19:25:20.812Z,17.27
2018-08-30T19:27:49.397Z,17.24
2018-08-30T19:30:23.480Z,17.22
2018-08-30T19:32:52.106Z,17.21
2018-08-30T19:35:26.789Z,16.88
2018-08-30T19:37:56.434Z,17.21
2018-08-30T19:40:30.314Z,17.19
2018-08-30T19:43:00.024Z,17.15
2018-08-30T19:45:31.122Z,17.13
2018-08-30T19:48:00.082Z,17.07
2018-08-30T19:50:29.934Z,17.07
2018-08-30T19:52:58.811Z,17.06
2018-08-30T19:55:28.356Z,16.75
2018-08-30T19:57:57.183Z,16.94
2018-08-30T20:00:26.143Z,16.56
2018-08-30T20:02:54.736Z,16.91
2018-08-30T20:05:23.648Z,16.94
2018-08-30T20:07:52.397Z,16.94
2018-08-30T20:10:21.919Z,16.88
2018-08-30T20:12:50.689Z,16.87
2018-08-30T20:15:19.446Z,16.86
2018-08-30T20:17:48.024Z,16.75
2018-08-30T20:20:16.758Z,16.79
2018-08-30T20:22:45.736Z,16.76
2018-08-30T20:25:14.423Z,16.76
2018-08-30T20:27:43.371Z,16.75
2018-08-30T20:30:12.025Z,16.73
2018-08-30T20:32:40.658Z,16.74
2018-08-30T20:35:09.592Z,16.72
2018-08-30T20:37:38.514Z,16.73
2018-08-30T20:40:07.230Z,16.49
2018-08-30T20:42:35.999Z,16.63
2018-08-30T20:45:04.726Z,16.63
2018-08-30T20:47:33.398Z,16.63
2018-08-30T20:50:02.259Z,16.58
2018-08-30T20:52:31.099Z,16.54
2018-08-30T20:54:59.934Z,16.52
2018-08-30T20:57:28.700Z,16.50
2018-08-30T20:59:57.506Z,16.45
2018-08-30T21:02:26.699Z,16.30
2018-08-30T21:04:55.277Z,16.42
2018-08-30T21:07:24.119Z,16.39
2018-08-30T21:09:52.830Z,16.40
2018-08-30T21:12:21.762Z,16.00
2018-08-30T21:14:50.484Z,16.38
2018-08-30T21:17:19.580Z,16.37
2018-08-30T21:19:48.320Z,16.38
2018-08-30T21:22:16.974Z,16.36
2018-08-30T21:24:45.942Z,16.32
2018-08-30T21:27:14.755Z,16.31
2018-08-30T21:29:43.350Z,16.34
2018-08-30T21:32:12.219Z,16.32
2018-08-30T21:34:40.990Z,16.29
2018-08-30T21:37:09.575Z,16.26
2018-08-30T21:39:38.465Z,16.23
2018-08-30T21:42:07.138Z,16.24
2018-08-30T21:44:36.050Z,16.21
2018-08-30T21:47:04.873Z,16.18
2018-08-30T21:49:34.046Z,16.17
2018-08-30T21:52:02.713Z,16.15
2018-08-30T21:54:31.791Z,16.15
2018-08-30T21:57:00.590Z,16.13
2018-08-30T21:59:29.227Z,16.10
2018-08-30T22:01:57.990Z,16.11
2018-08-30T22:04:27.495Z,16.10
2018-08-30T22:06:56.298Z,15.56
2018-08-30T22:09:25.040Z,16.11
2018-08-30T22:11:54.410Z,16.08
2018-08-30T22:14:24.177Z,16.06
2018-08-30T22:16:53.198Z,15.69
2018-08-30T22:19:22.034Z,16.04
2018-08-30T22:21:50.926Z,16.04
2018-08-30T22:24:19.588Z,16.02
2018-08-30T22:26:48.634Z,16.02
2018-08-30T22:29:17.642Z,16.02
2018-08-30T22:31:46.817Z,15.98
2018-08-30T22:34:15.354Z,15.94
2018-08-30T22:36:43.989Z,15.94
2018-08-30T22:39:12.546Z,15.92
2018-08-30T22:41:41.106Z,15.88
2018-08-30T22:44:10.126Z,15.87
2018-08-30T22:46:38.658Z,15.82
2018-08-30T22:49:07.795Z,15.83
2018-08-30T22:51:36.450Z,15.82
2018-08-30T22:54:05.582Z,15.80
2018-08-30T22:56:34.720Z,15.80
2018-08-30T22:59:03.489Z,15.79
2018-08-30T23:01:32.494Z,15.76
2018-08-30T23:04:01.079Z,15.75
2018-08-30T23:06:30.163Z,15.73
2018-08-30T23:08:58.766Z,15.74
2018-08-30T23:11:28.010Z,15.48
2018-08-30T23:13:56.798Z,15.68
2018-08-30T23:16:27.005Z,15.69
2018-08-30T23:18:55.585Z,15.69
2018-08-30T23:21:24.697Z,15.66
2018-08-30T23:23:53.484Z,15.64
2018-08-30T23:26:22.455Z,15.65
2018-08-30T23:28:51.066Z,15.64
2018-08-30T23:31:19.854Z,15.62
2018-08-30T23:33:48.522Z,15.60
2018-08-30T23:36:17.863Z,15.60
2018-08-30T23:38:46.642Z,15.58
2018-08-30T23:41:15.469Z,15.59
2018-08-30T23:43:44.235Z,15.60
2018-08-30T23:46:12.862Z,15.59
2018-08-30T23:48:41.916Z,15.60
2018-08-30T23:51:10.582Z,15.58
2018-08-30T23:53:39.638Z,15.22
2018-08-30T23:56:08.448Z,15.56
2018-08-30T23:58:48.255Z,15.57
